createdAt,value
2023-03-06T00:00:39.743Z,2.75
2023-03-06T00:03:06.647Z,2.45
2023-03-06T00:05:33.265Z,1.88
2023-03-06T00:07:59.725Z,3.08
2023-03-06T00:10:29.003Z,1.77
2023-03-06T00:12:59.593Z,2.70
2023-03-06T00:15:27.292Z,2.42
2023-03-06T00:17:54.409Z,3.40
2023-03-06T00:20:22.245Z,2.67
2023-03-06T00:22:49.405Z,2.60
2023-03-06T00:25:18.863Z,3.60
2023-03-06T00:27:45.933Z,8.07
2023-03-06T00:30:18.612Z,6.68
2023-03-06T00:32:45.313Z,2.15
2023-03-06T00:35:12.330Z,4.05
2023-03-06T00:37:39.720Z,1.35
2023-03-06T00:40:07.312Z,1.48
2023-03-06T00:42:33.721Z,4.65
2023-03-06T00:45:00.146Z,5.35
2023-03-06T00:47:26.572Z,3.60
2023-03-06T00:49:53.001Z,2.92
2023-03-06T00:52:19.593Z,3.78
2023-03-06T00:54:46.052Z,6.13
2023-03-06T00:57:12.487Z,2.80
2023-03-06T00:59:39.005Z,5.00
2023-03-06T01:02:05.942Z,2.58
2023-03-06T01:04:32.546Z,7.28
2023-03-06T01:06:59.025Z,2.92
2023-03-06T01:09:25.849Z,3.58
2023-03-06T01:11:52.218Z,3.40
2023-03-06T01:14:21.415Z,4.60
2023-03-06T01:16:48.459Z,2.53
2023-03-06T01:19:14.968Z,1.90
2023-03-06T01:21:41.359Z,3.00
2023-03-06T01:24:07.918Z,2.35
2023-03-06T01:26:34.761Z,1.27
2023-03-06T01:29:01.608Z,1.02
2023-03-06T01:31:28.293Z,1.52
2023-03-06T01:33:54.762Z,1.38
2023-03-06T01:36:21.167Z,6.75
2023-03-06T01:38:47.528Z,2.88
2023-03-06T01:41:17.303Z,1.80
2023-03-06T01:43:45.780Z,4.20
2023-03-06T01:46:17.879Z,3.88
2023-03-06T01:48:46.502Z,2.28
2023-03-06T01:51:13.065Z,2.88
2023-03-06T01:53:40.810Z,2.38
2023-03-06T01:56:07.783Z,2.72
2023-03-06T01:58:34.518Z,3.00
2023-03-06T02:01:00.970Z,3.55
2023-03-06T02:03:28.903Z,2.33
2023-03-06T02:05:56.469Z,3.13
2023-03-06T02:08:23.976Z,2.78
2023-03-06T02:11:14.188Z,4.20
2023-03-06T02:13:42.612Z,3.95
2023-03-06T02:16:10.200Z,2.05
2023-03-06T02:18:38.110Z,2.25
2023-03-06T02:21:08.427Z,1.13
2023-03-06T02:23:53.767Z,5.60
2023-03-06T02:26:21.109Z,4.32
2023-03-06T02:28:47.618Z,3.97
2023-03-06T02:31:22.911Z,5.43
2023-03-06T02:34:15.516Z,6.18
2023-03-06T02:36:51.049Z,2.53
2023-03-06T02:39:21.814Z,4.72
2023-03-06T02:41:48.314Z,3.78
2023-03-06T02:44:14.737Z,5.97
2023-03-06T02:46:41.154Z,3.50
2023-03-06T02:49:07.627Z,8.70
2023-03-06T02:51:34.589Z,1.45
2023-03-06T02:54:00.974Z,2.55
2023-03-06T02:56:27.451Z,4.78
2023-03-06T02:58:53.919Z,5.88
2023-03-06T03:01:20.404Z,4.15
2023-03-06T03:03:46.937Z,2.33
2023-03-06T03:06:13.377Z,1.75
2023-03-06T03:08:39.812Z,6.18
2023-03-06T03:11:06.247Z,2.78
2023-03-06T03:13:32.703Z,4.30
2023-03-06T03:16:02.505Z,1.80
2023-03-06T03:18:29.587Z,5.30
2023-03-06T03:20:56.247Z,4.57
2023-03-06T03:23:23.021Z,3.15
2023-03-06T03:25:50.026Z,2.17
2023-03-06T03:28:16.670Z,2.05
2023-03-06T03:30:43.617Z,1.48
2023-03-06T03:33:10.517Z,2.38
2023-03-06T03:35:37.486Z,3.72
2023-03-06T03:38:04.048Z,3.88
2023-03-06T03:40:30.516Z,2.95
2023-03-06T03:42:56.911Z,2.05
2023-03-06T03:45:23.337Z,3.40
2023-03-06T03:47:49.767Z,4.90
2023-03-06T03:50:16.310Z,2.65
2023-03-06T03:52:42.761Z,4.63
2023-03-06T03:55:09.406Z,4.75
2023-03-06T03:57:35.803Z,4.07
2023-03-06T04:00:02.185Z,5.20
2023-03-06T04:02:28.613Z,2.00
2023-03-06T04:04:55.253Z,2.80
2023-03-06T04:07:21.662Z,1.15
2023-03-06T04:09:48.053Z,2.33
2023-03-06T04:12:14.525Z,2.75
2023-03-06T04:14:40.959Z,2.58
2023-03-06T04:17:07.405Z,3.30
2023-03-06T04:19:33.761Z,4.30
2023-03-06T04:22:00.192Z,3.08
2023-03-06T04:24:26.570Z,4.72
2023-03-06T04:26:53.021Z,3.47
2023-03-06T04:29:19.412Z,3.72
2023-03-06T04:31:45.852Z,5.35
2023-03-06T04:34:12.311Z,3.10
2023-03-06T04:36:38.813Z,2.88
2023-03-06T04:39:05.231Z,3.83
2023-03-06T04:41:31.680Z,2.95
2023-03-06T04:43:58.313Z,4.82
2023-03-06T04:46:25.151Z,5.93
2023-03-06T04:48:51.587Z,3.72
2023-03-06T04:51:18.133Z,1.85
2023-03-06T04:53:44.581Z,3.13
2023-03-06T04:56:11.051Z,3.53
2023-03-06T04:58:37.672Z,5.70
2023-03-06T05:01:04.546Z,5.85
2023-03-06T05:03:31.029Z,3.50
2023-03-06T05:05:58.464Z,1.33
2023-03-06T05:08:24.921Z,4.57
2023-03-06T05:11:01.885Z,3.03
2023-03-06T05:13:29.057Z,3.80
2023-03-06T05:15:55.618Z,3.40
2023-03-06T05:18:22.004Z,4.25
2023-03-06T05:20:48.428Z,2.25
2023-03-06T05:23:14.882Z,2.00
2023-03-06T05:25:42.076Z,3.35
2023-03-06T05:28:08.842Z,2.60
2023-03-06T05:30:36.600Z,2.08
2023-03-06T05:33:03.141Z,2.08
2023-03-06T05:35:29.654Z,3.20
2023-03-06T05:37:56.615Z,1.00
2023-03-06T05:40:23.204Z,2.80
2023-03-06T05:42:49.695Z,2.75
2023-03-06T05:45:16.249Z,2.22
2023-03-06T05:47:42.719Z,3.85
2023-03-06T05:50:10.738Z,2.78
2023-03-06T05:52:39.514Z,2.08
2023-03-06T05:55:07.416Z,1.25
2023-03-06T05:57:34.067Z,2.17
2023-03-06T06:00:00.594Z,2.28
2023-03-06T06:02:27.080Z,5.35
2023-03-06T06:04:53.528Z,0.70
2023-03-06T06:07:19.923Z,1.85
2023-03-06T06:09:46.440Z,1.95
2023-03-06T06:12:14.029Z,1.30
2023-03-06T06:14:40.424Z,1.85
2023-03-06T06:17:07.034Z,3.45
2023-03-06T06:19:33.416Z,1.85
2023-03-06T06:22:02.568Z,1.55
2023-03-06T06:24:29.614Z,2.70
2023-03-06T06:26:57.767Z,1.90
2023-03-06T06:29:25.263Z,1.73
2023-03-06T06:31:52.089Z,2.45
2023-03-06T06:34:19.044Z,1.75
2023-03-06T06:36:45.858Z,1.33
2023-03-06T06:39:15.909Z,3.33
2023-03-06T06:41:59.335Z,3.33
2023-03-06T06:44:28.826Z,1.15
2023-03-06T06:49:41.626Z,1.58
2023-03-06T06:52:08.123Z,1.40
2023-03-06T06:54:34.774Z,0.93
2023-03-06T06:57:01.242Z,3.92
2023-03-06T06:59:27.768Z,5.30
2023-03-06T07:01:54.216Z,4.57
2023-03-06T07:04:20.749Z,2.97
2023-03-06T07:06:47.186Z,2.35
2023-03-06T07:09:14.209Z,3.83
2023-03-06T07:11:41.224Z,3.22
2023-03-06T07:14:08.089Z,4.47
2023-03-06T07:16:34.936Z,2.75
2023-03-06T07:19:01.377Z,3.80
2023-03-06T07:21:27.806Z,2.67
2023-03-06T07:23:57.182Z,2.90
2023-03-06T07:26:27.880Z,4.43
2023-03-06T07:28:54.928Z,2.50
2023-03-06T07:31:23.802Z,3.08
2023-03-06T07:33:51.926Z,2.67
2023-03-06T07:36:18.767Z,4.25
2023-03-06T07:38:45.415Z,3.33
2023-03-06T07:41:13.771Z,2.88
2023-03-06T07:43:41.212Z,1.95
2023-03-06T07:46:08.720Z,2.65
2023-03-06T07:48:36.241Z,2.75
2023-03-06T07:51:08.890Z,1.73
2023-03-06T07:53:35.707Z,2.80
2023-03-06T07:56:08.493Z,3.72
2023-03-06T07:58:36.656Z,2.83
2023-03-06T08:01:05.386Z,4.70
2023-03-06T08:03:32.385Z,1.80
2023-03-06T08:06:10.091Z,11.18
2023-03-06T08:08:39.266Z,4.85
2023-03-06T08:11:07.423Z,2.58
2023-03-06T08:13:34.340Z,3.15
2023-03-06T08:16:00.846Z,4.03
2023-03-06T08:18:28.421Z,3.03
2023-03-06T08:21:05.510Z,3.50
2023-03-06T08:23:32.865Z,1.80
2023-03-06T08:26:00.690Z,2.85
2023-03-06T08:28:28.496Z,2.75
2023-03-06T08:30:56.228Z,3.70
2023-03-06T08:33:23.261Z,2.67
2023-03-06T08:35:49.724Z,9.52
2023-03-06T08:38:16.280Z,6.53
2023-03-06T08:40:42.819Z,7.38
2023-03-06T08:43:12.385Z,4.47
2023-03-06T08:45:40.289Z,2.53
2023-03-06T08:48:06.717Z,1.55
2023-03-06T08:50:33.194Z,2.80
2023-03-06T08:52:59.808Z,1.55
2023-03-06T08:55:28.096Z,2.92
2023-03-06T08:57:54.630Z,2.35
2023-03-06T09:00:21.253Z,1.35
2023-03-06T09:02:47.801Z,0.45
2023-03-06T09:05:14.237Z,0.98
2023-03-06T09:07:40.650Z,2.05
2023-03-06T09:10:08.364Z,1.95
2023-03-06T09:12:47.516Z,3.08
2023-03-06T09:15:16.229Z,2.17
2023-03-06T09:17:42.686Z,3.17
2023-03-06T09:20:10.871Z,1.85
2023-03-06T09:22:37.747Z,1.77
2023-03-06T09:25:05.877Z,1.70
2023-03-06T09:27:32.362Z,0.82
2023-03-06T09:29:58.780Z,2.10
2023-03-06T09:32:25.889Z,4.07
2023-03-06T09:34:52.399Z,0.88
2023-03-06T09:37:19.267Z,0.63
2023-03-06T09:39:45.657Z,1.73
2023-03-06T09:42:18.842Z,0.95
2023-03-06T09:44:54.584Z,1.85
2023-03-06T09:47:45.012Z,1.58
2023-03-06T09:50:20.615Z,2.67
2023-03-06T09:52:59.204Z,2.75
2023-03-06T09:55:30.354Z,2.35
2023-03-06T09:58:09.022Z,3.95
2023-03-06T10:01:17.209Z,1.27
2023-03-06T10:04:13.516Z,0.38
2023-03-06T10:06:48.264Z,1.00
2023-03-06T10:09:32.013Z,1.95
2023-03-06T10:12:06.654Z,0.43
2023-03-06T10:14:41.895Z,1.77
2023-03-06T10:17:20.093Z,3.20
2023-03-06T10:19:49.955Z,0.90
2023-03-06T10:22:33.174Z,2.70
2023-03-06T10:25:26.039Z,2.55
2023-03-06T10:28:03.662Z,2.33
2023-03-06T10:30:52.636Z,1.33
2023-03-06T10:33:42.319Z,2.15
2023-03-06T10:36:14.577Z,1.70
2023-03-06T10:38:42.650Z,0.93
2023-03-06T10:41:11.986Z,4.50
2023-03-06T10:44:05.675Z,2.45
2023-03-06T10:46:37.901Z,1.40
2023-03-06T10:49:22.175Z,2.85
2023-03-06T10:51:59.626Z,0.70
2023-03-06T10:54:26.925Z,0.38
2023-03-06T10:56:53.544Z,1.58
2023-03-06T10:59:26.508Z,1.17
2023-03-06T11:01:58.741Z,1.27
2023-03-06T11:04:29.756Z,3.58
2023-03-06T11:07:18.209Z,3.97
2023-03-06T11:09:56.505Z,2.33
2023-03-06T11:12:29.070Z,0.90
2023-03-06T11:15:20.950Z,2.00
2023-03-06T11:18:04.540Z,3.47
2023-03-06T11:20:52.141Z,7.60
2023-03-06T11:23:28.363Z,4.78
2023-03-06T11:26:07.104Z,2.28
2023-03-06T11:28:40.769Z,1.35
2023-03-06T11:31:32.983Z,1.48
2023-03-06T11:34:16.508Z,1.88
2023-03-06T11:37:06.224Z,1.52
2023-03-06T11:39:42.772Z,2.38
2023-03-06T11:42:34.558Z,3.38
2023-03-06T11:45:04.240Z,1.40
2023-03-06T11:47:40.986Z,6.13
2023-03-06T11:50:18.882Z,2.03
2023-03-06T11:52:57.134Z,1.30
2023-03-06T11:55:42.670Z,2.72
2023-03-06T11:58:22.410Z,1.63
2023-03-06T12:01:08.696Z,3.00
2023-03-06T12:03:50.290Z,3.78
2023-03-06T12:06:16.675Z,2.42
2023-03-06T12:09:09.008Z,3.97
2023-03-06T12:11:45.823Z,7.63
2023-03-06T12:14:37.240Z,4.22
2023-03-06T12:17:23.423Z,1.88
2023-03-06T12:19:50.594Z,4.03
2023-03-06T12:22:31.221Z,4.95
2023-03-06T12:25:08.455Z,2.83
2023-03-06T12:28:15.854Z,3.95
2023-03-06T12:31:17.561Z,4.28
2023-03-06T12:34:14.290Z,3.70
2023-03-06T12:37:07.653Z,4.45
2023-03-06T12:40:12.586Z,8.13
2023-03-06T12:43:23.573Z,4.88
2023-03-06T12:45:57.834Z,4.78
2023-03-06T12:48:29.220Z,3.08
2023-03-06T12:50:56.290Z,4.47
2023-03-06T12:53:30.644Z,5.15
2023-03-06T12:56:00.171Z,6.68
2023-03-06T12:58:32.596Z,6.53
2023-03-06T13:01:32.387Z,6.22
2023-03-06T13:04:16.968Z,6.07
2023-03-06T13:07:04.996Z,10.48
2023-03-06T13:10:06.317Z,4.47
2023-03-06T13:12:49.837Z,4.47
2023-03-06T13:15:37.899Z,4.13
2023-03-06T13:18:42.732Z,5.03
2023-03-06T13:21:44.633Z,4.70
2023-03-06T13:24:25.603Z,6.85
2023-03-06T13:27:04.724Z,5.03
2023-03-06T13:29:36.788Z,5.07
2023-03-06T13:32:03.411Z,6.28
2023-03-06T13:34:35.771Z,5.60
2023-03-06T13:37:17.586Z,6.43
2023-03-06T13:39:56.045Z,5.05
2023-03-06T13:42:29.949Z,5.10
2023-03-06T13:45:05.619Z,4.95
2023-03-06T13:50:44.249Z,5.40
2023-03-06T13:53:44.527Z,4.55
2023-03-06T13:56:28.957Z,5.25
2023-03-06T13:59:37.335Z,5.97
2023-03-06T14:02:55.971Z,5.50
2023-03-06T14:05:24.048Z,4.63
2023-03-06T14:08:18.465Z,5.25
2023-03-06T14:10:47.279Z,3.23
2023-03-06T14:13:22.279Z,3.95
2023-03-06T14:15:51.268Z,3.58
2023-03-06T14:18:38.480Z,4.63
2023-03-06T14:21:11.817Z,5.32
2023-03-06T14:23:42.585Z,5.95
2023-03-06T14:26:18.574Z,5.85
2023-03-06T14:28:56.628Z,7.18
2023-03-06T14:31:25.627Z,5.22
2023-03-06T14:33:55.252Z,4.97
2023-03-06T14:36:26.003Z,4.93
2023-03-06T14:38:59.009Z,5.95
2023-03-06T14:41:32.061Z,4.45
2023-03-06T14:44:28.526Z,6.05
2023-03-06T14:46:56.893Z,5.35
2023-03-06T14:49:25.598Z,4.57
2023-03-06T14:52:00.536Z,4.60
2023-03-06T14:54:36.928Z,5.65
2023-03-06T14:57:08.518Z,5.13
2023-03-06T14:59:41.619Z,7.03
2023-03-06T15:02:12.545Z,6.93
2023-03-06T15:04:49.115Z,7.32
2023-03-06T15:07:26.076Z,6.35
2023-03-06T15:09:54.313Z,10.52
2023-03-06T15:12:20.809Z,11.00
2023-03-06T15:15:10.410Z,11.82
2023-03-06T15:17:42.776Z,8.95
2023-03-06T15:20:37.447Z,10.50
2023-03-06T15:23:15.365Z,12.35
2023-03-06T15:25:50.836Z,7.50
2023-03-06T15:28:26.872Z,10.32
2023-03-06T15:31:18.128Z,7.55
2023-03-06T15:33:59.383Z,9.60
2023-03-06T15:36:29.637Z,10.48
2023-03-06T15:38:56.512Z,7.20
2023-03-06T15:41:38.088Z,12.02
2023-03-06T15:44:15.366Z,9.18
2023-03-06T15:46:42.067Z,9.45
2023-03-06T15:49:17.491Z,8.63
2023-03-06T15:51:44.053Z,10.50
2023-03-06T15:54:12.535Z,6.97
2023-03-06T15:56:42.200Z,10.68
2023-03-06T15:59:15.415Z,11.43
2023-03-06T16:01:43.288Z,10.50
2023-03-06T16:04:09.807Z,9.60
2023-03-06T16:06:37.220Z,10.93
2023-03-06T16:09:03.620Z,11.77
2023-03-06T16:11:41.977Z,8.35
2023-03-06T16:14:20.026Z,8.35
2023-03-06T16:16:47.664Z,10.25
2023-03-06T16:19:26.011Z,7.43
2023-03-06T16:21:53.199Z,8.70
2023-03-06T16:24:19.572Z,7.78
2023-03-06T16:26:49.275Z,8.93
2023-03-06T16:29:24.073Z,7.95
2023-03-06T16:31:51.456Z,12.05
2023-03-06T16:34:19.672Z,11.85
2023-03-06T16:36:48.161Z,11.80
2023-03-06T16:39:20.684Z,14.80
2023-03-06T16:41:49.283Z,12.10
2023-03-06T16:44:15.907Z,11.15
2023-03-06T16:46:47.084Z,9.75
2023-03-06T16:49:22.661Z,14.98
2023-03-06T16:51:49.751Z,13.73
2023-03-06T16:54:16.160Z,13.93
2023-03-06T16:56:43.338Z,15.40
2023-03-06T16:59:10.624Z,15.90
2023-03-06T17:01:38.678Z,13.57
2023-03-06T17:04:05.313Z,14.90
2023-03-06T17:06:31.787Z,15.73
2023-03-06T17:08:59.645Z,21.10
2023-03-06T17:11:26.615Z,17.30
2023-03-06T17:13:54.679Z,22.70
2023-03-06T17:16:21.444Z,19.33
2023-03-06T17:18:48.239Z,23.55
2023-03-06T17:21:17.578Z,22.65
2023-03-06T17:23:44.631Z,21.05
2023-03-06T17:26:18.100Z,26.00
2023-03-06T17:28:45.784Z,26.48
2023-03-06T17:31:21.176Z,27.60
2023-03-06T17:33:48.425Z,27.33
2023-03-06T17:36:15.962Z,31.48
2023-03-06T17:38:43.430Z,31.70
2023-03-06T17:41:11.446Z,30.00
2023-03-06T17:43:38.668Z,32.58
2023-03-06T17:46:10.540Z,27.88
2023-03-06T17:48:37.510Z,29.45
2023-03-06T17:51:04.093Z,24.25
2023-03-06T17:53:31.968Z,24.63
2023-03-06T17:55:58.403Z,26.58
2023-03-06T17:58:26.173Z,26.50
2023-03-06T18:00:52.820Z,20.85
2023-03-06T18:03:19.484Z,23.00
2023-03-06T18:05:46.044Z,26.45
2023-03-06T18:08:12.523Z,25.90
2023-03-06T18:10:43.420Z,22.35
2023-03-06T18:13:10.437Z,26.17
2023-03-06T18:15:40.940Z,20.05
2023-03-06T18:18:08.422Z,21.80
2023-03-06T18:20:40.342Z,23.65
2023-03-06T18:23:06.803Z,25.00
2023-03-06T18:25:33.325Z,26.88
2023-03-06T18:27:59.802Z,24.65
2023-03-06T18:30:26.631Z,20.20
2023-03-06T18:32:53.972Z,16.50
2023-03-06T18:35:21.033Z,21.98
2023-03-06T18:37:47.536Z,20.35
2023-03-06T18:40:14.311Z,17.58
2023-03-06T18:42:40.778Z,17.70
2023-03-06T18:45:07.832Z,20.55
2023-03-06T18:47:34.192Z,19.23
2023-03-06T18:50:02.650Z,16.45
2023-03-06T18:52:29.060Z,16.00
2023-03-06T18:54:55.443Z,14.25
2023-03-06T18:57:21.943Z,11.18
2023-03-06T18:59:48.382Z,15.27
2023-03-06T19:02:14.816Z,15.50
2023-03-06T19:04:41.265Z,14.48
2023-03-06T19:07:07.856Z,15.43
2023-03-06T19:09:34.247Z,10.75
2023-03-06T19:12:03.392Z,11.43
2023-03-06T19:14:29.923Z,15.02
2023-03-06T19:16:56.712Z,11.63
2023-03-06T19:19:26.396Z,15.48
2023-03-06T19:21:53.507Z,14.10
2023-03-06T19:24:19.938Z,14.98
2023-03-06T19:26:46.387Z,18.13
2023-03-06T19:29:12.942Z,18.08
2023-03-06T19:31:39.394Z,16.13
2023-03-06T19:34:05.814Z,17.80
2023-03-06T19:36:34.109Z,15.07
2023-03-06T19:39:04.076Z,14.48
2023-03-06T19:41:30.553Z,13.63
2023-03-06T19:43:59.215Z,9.88
2023-03-06T19:46:26.514Z,8.85
2023-03-06T19:49:01.496Z,10.70
2023-03-06T19:51:28.594Z,15.13
2023-03-06T19:53:56.603Z,12.48
2023-03-06T19:56:28.983Z,12.85
2023-03-06T19:58:56.312Z,10.68
2023-03-06T20:01:25.125Z,8.65
2023-03-06T20:03:59.353Z,6.88
2023-03-06T20:06:28.049Z,6.13
2023-03-06T20:08:54.868Z,7.32
2023-03-06T20:11:23.995Z,6.60
2023-03-06T20:13:50.724Z,7.13
2023-03-06T20:16:17.903Z,6.10
2023-03-06T20:18:45.452Z,7.97
2023-03-06T20:21:12.168Z,7.43
2023-03-06T20:23:38.603Z,4.60
2023-03-06T20:26:11.732Z,6.07
2023-03-06T20:28:39.416Z,5.13
2023-03-06T20:31:27.650Z,7.00
2023-03-06T20:33:56.287Z,5.20
2023-03-06T20:36:27.419Z,5.63
2023-03-06T20:38:53.839Z,4.07
2023-03-06T20:41:25.353Z,5.75
2023-03-06T20:43:52.345Z,10.23
2023-03-06T20:46:22.781Z,5.00
2023-03-06T20:48:51.755Z,6.32
2023-03-06T20:51:28.524Z,5.45
2023-03-06T20:53:55.931Z,3.83
2023-03-06T20:56:25.444Z,5.20
2023-03-06T20:58:52.124Z,8.27
2023-03-06T21:01:23.761Z,7.40
2023-03-06T21:03:51.067Z,6.03
2023-03-06T21:06:18.164Z,5.30
2023-03-06T21:08:45.345Z,7.57
2023-03-06T21:11:11.987Z,7.10
2023-03-06T21:13:38.465Z,7.20
2023-03-06T21:16:10.716Z,6.45
2023-03-06T21:18:37.200Z,6.90
2023-03-06T21:21:08.847Z,7.70
2023-03-06T21:23:35.280Z,6.40
2023-03-06T21:26:01.733Z,4.72
2023-03-06T21:28:28.215Z,9.23
2023-03-06T21:30:54.577Z,9.05
2023-03-06T21:33:21.035Z,5.82
2023-03-06T21:35:47.560Z,8.23
2023-03-06T21:38:14.030Z,5.28
2023-03-06T21:40:40.598Z,8.45
2023-03-06T21:43:07.016Z,4.88
2023-03-06T21:45:33.471Z,7.60
2023-03-06T21:48:00.314Z,3.45
2023-03-06T21:50:28.090Z,3.65
2023-03-06T21:52:56.316Z,4.57
2023-03-06T21:55:23.320Z,7.78
2023-03-06T21:57:53.991Z,6.40
2023-03-06T22:00:23.252Z,5.43
2023-03-06T22:02:50.151Z,2.78
2023-03-06T22:05:16.930Z,4.85
2023-03-06T22:07:43.380Z,5.90
2023-03-06T22:10:12.134Z,5.40
2023-03-06T22:12:39.238Z,7.22
2023-03-06T22:15:06.792Z,2.92
2023-03-06T22:17:33.280Z,7.53
2023-03-06T22:19:59.622Z,5.25
2023-03-06T22:22:26.054Z,5.78
2023-03-06T22:24:52.470Z,7.57
2023-03-06T22:27:18.882Z,5.00
2023-03-06T22:29:45.873Z,8.27
2023-03-06T22:32:12.647Z,8.07
2023-03-06T22:34:39.285Z,10.32
2023-03-06T22:37:05.693Z,6.80
2023-03-06T22:39:32.093Z,3.53
2023-03-06T22:41:58.751Z,4.50
2023-03-06T22:44:25.138Z,3.45
2023-03-06T22:46:51.791Z,5.38
2023-03-06T22:49:18.815Z,6.45
2023-03-06T22:51:45.339Z,5.85
2023-03-06T22:54:11.886Z,4.32
2023-03-06T22:56:38.428Z,4.53
2023-03-06T22:59:05.270Z,3.58
2023-03-06T23:01:34.083Z,4.28
2023-03-06T23:04:02.863Z,6.28
2023-03-06T23:06:31.855Z,6.30
2023-03-06T23:09:05.966Z,9.27
2023-03-06T23:11:33.017Z,5.88
2023-03-06T23:13:59.702Z,5.50
2023-03-06T23:16:26.290Z,6.90
2023-03-06T23:18:53.320Z,7.78
2023-03-06T23:21:21.689Z,5.50
2023-03-06T23:23:50.198Z,3.95
2023-03-06T23:26:17.363Z,2.97
2023-03-06T23:28:43.935Z,4.93
2023-03-06T23:31:15.772Z,5.10
2023-03-06T23:33:42.630Z,8.98
2023-03-06T23:36:12.600Z,10.68
2023-03-06T23:38:39.389Z,6.30
2023-03-06T23:41:12.622Z,15.05
2023-03-06T23:43:39.308Z,7.32
2023-03-06T23:46:07.166Z,15.70
2023-03-06T23:48:35.702Z,10.80
2023-03-06T23:51:23.031Z,13.52
2023-03-06T23:53:55.617Z,9.57
2023-03-06T23:56:23.176Z,9.23
2023-03-06T23:58:49.652Z,6.88
